Time;durP1;ratioP1;P1;durP2;ratioP2;P2;SDS_P1;SDS_P2;PMS_P1;PMS_P2;Temp;Humidity;BMP_temperature;BMP_pressure;BME280_temperature;BME280_humidity;BME280_pressure;Samples;Min_cycle;Max_cycle;Signal;HPM_P1;HPM_P2
2024/01/14 00:02:23;;;;;;;36.92;12.00;;;;;;;-3.49;100.00;98994.28;5016778;28;20125;-80
2024/01/14 00:04:49;;;;;;;39.33;11.35;;;;;;;-3.51;100.00;99002.34;5019777;28;20032;-80
2024/01/14 00:07:14;;;;;;;39.03;11.55;;;;;;;-3.54;100.00;98968.16;5032011;28;20041;-81
2024/01/14 00:09:39;;;;;;;46.60;11.48;;;;;;;-3.48;100.00;98986.25;5019002;28;20035;-78
2024/01/14 00:12:05;;;;;;;41.03;11.00;;;;;;;-3.70;100.00;98930.53;5010765;28;20475;-78
2024/01/14 00:14:31;;;;;;;47.13;11.52;;;;;;;-3.43;100.00;98976.19;5016313;28;20138;-78
2024/01/14 00:16:56;;;;;;;44.20;11.45;;;;;;;-3.52;100.00;98951.22;5021016;28;20041;-78
2024/01/14 00:19:21;;;;;;;39.95;11.57;;;;;;;-3.43;100.00;98970.88;5037922;28;20481;-78
2024/01/14 00:21:47;;;;;;;42.85;11.50;;;;;;;-3.65;100.00;98933.72;5035417;28;20144;-79
2024/01/14 00:24:12;;;;;;;37.53;11.95;;;;;;;-3.55;100.00;98934.72;5033756;28;20021;-78
2024/01/14 00:26:37;;;;;;;41.72;11.77;;;;;;;-3.54;100.00;98947.00;5021210;28;20112;-78
2024/01/14 00:29:03;;;;;;;34.05;11.00;;;;;;;-3.37;100.00;98957.19;5035052;28;20393;-78
2024/01/14 00:31:28;;;;;;;36.58;10.57;;;;;;;-3.40;100.00;98933.63;5020044;28;20025;-78
2024/01/14 00:33:54;;;;;;;43.08;11.75;;;;;;;-3.45;100.00;98926.97;5011768;28;20024;-78
2024/01/14 00:36:19;;;;;;;39.58;12.65;;;;;;;-3.65;100.00;98918.69;5037486;28;20047;-78
2024/01/14 00:38:45;;;;;;;43.33;12.80;;;;;;;-3.48;100.00;98940.41;5021391;23;20613;-57
2024/01/14 00:41:11;;;;;;;42.00;12.77;;;;;;;-3.40;100.00;98930.97;5030423;28;20060;-57
2024/01/14 00:43:36;;;;;;;46.05;12.77;;;;;;;-3.50;100.00;98919.38;5032163;28;20025;-57
2024/01/14 00:46:04;;;;;;;42.10;12.18;;;;;;;-3.43;100.00;98922.41;5027995;28;20487;-58
2024/01/14 00:48:30;;;;;;;44.13;10.68;;;;;;;-3.43;100.00;98912.69;5020446;28;20030;-59
2024/01/14 00:50:56;;;;;;;39.85;12.30;;;;;;;-3.39;100.00;98915.94;5021455;28;20491;-58
2024/01/14 00:53:21;;;;;;;40.72;11.60;;;;;;;-3.34;100.00;98913.81;5021703;28;20022;-58
2024/01/14 00:55:47;;;;;;;40.35;12.07;;;;;;;-3.35;100.00;98907.69;5020525;28;20026;-58
2024/01/14 00:58:13;;;;;;;41.70;12.10;;;;;;;-3.42;100.00;98887.09;5019632;28;20077;-59
2024/01/14 01:00:38;;;;;;;40.30;11.18;;;;;;;-3.36;100.00;98913.91;5017409;28;20064;-58
2024/01/14 01:03:04;;;;;;;47.13;12.07;;;;;;;-3.39;100.00;98914.13;5027896;28;20025;-60
2024/01/14 01:05:30;;;;;;;48.20;12.98;;;;;;;-3.38;100.00;98905.25;5016971;28;20029;-58
2024/01/14 01:07:55;;;;;;;40.95;11.65;;;;;;;-3.35;100.00;98910.31;5026460;28;20029;-58
2024/01/14 01:10:21;;;;;;;46.00;11.55;;;;;;;-3.34;100.00;98906.72;5018581;28;20026;-58
2024/01/14 01:12:46;;;;;;;40.58;11.50;;;;;;;-3.40;100.00;98899.25;5021619;28;20096;-60
2024/01/14 01:15:12;;;;;;;43.95;11.18;;;;;;;-3.58;100.00;98892.66;5023153;28;20092;-59
2024/01/14 01:17:37;;;;;;;38.72;11.18;;;;;;;-3.49;100.00;98891.97;5020014;28;20017;-59
2024/01/14 01:20:03;;;;;;;37.08;11.30;;;;;;;-3.44;100.00;98887.19;5021557;28;20102;-58
2024/01/14 01:22:28;;;;;;;45.40;11.55;;;;;;;-3.41;100.00;98883.47;5017248;28;20076;-58
2024/01/14 01:24:54;;;;;;;36.30;10.82;;;;;;;-3.53;100.00;98862.25;5021355;28;20032;-59
2024/01/14 01:27:20;;;;;;;40.17;11.75;;;;;;;-3.53;100.00;98891.34;5020981;28;20025;-59
2024/01/14 01:29:45;;;;;;;46.65;12.77;;;;;;;-3.50;100.00;98873.59;5022865;28;20032;-58
2024/01/14 01:32:11;;;;;;;44.40;11.55;;;;;;;-3.45;100.00;98874.94;5020099;28;20508;-59
2024/01/14 01:34:37;;;;;;;38.10;11.70;;;;;;;-3.35;100.00;98873.28;5022123;28;20040;-59
2024/01/14 01:37:03;;;;;;;38.53;11.10;;;;;;;-3.54;100.00;98857.94;5016896;28;20412;-59
2024/01/14 01:39:29;;;;;;;42.50;12.00;;;;;;;-3.44;100.00;98859.91;5014046;28;20013;-58
2024/01/14 01:41:54;;;;;;;40.28;11.43;;;;;;;-3.50;100.00;98853.25;5019599;28;20087;-59
2024/01/14 01:44:21;;;;;;;41.25;11.68;;;;;;;-3.67;100.00;98841.25;5016949;28;20025;-59
2024/01/14 01:46:48;;;;;;;42.13;11.93;;;;;;;-3.47;100.00;98857.47;5025970;28;20022;-58
2024/01/14 01:49:14;;;;;;;47.17;12.02;;;;;;;-3.58;100.00;98845.91;5017382;28;20026;-59
2024/01/14 01:51:41;;;;;;;42.92;12.30;;;;;;;-3.64;100.00;98851.66;5021067;28;20339;-58
2024/01/14 01:54:08;;;;;;;46.47;13.18;;;;;;;-3.66;100.00;98847.41;5015745;28;20041;-59
2024/01/14 01:56:36;;;;;;;46.60;12.15;;;;;;;-3.58;100.00;98850.34;5022219;28;20393;-58
2024/01/14 01:59:01;;;;;;;48.05;12.55;;;;;;;-3.55;100.00;98839.53;5016103;28;20022;-58
2024/01/14 02:01:27;;;;;;;45.25;13.75;;;;;;;-3.53;100.00;98827.06;5024922;28;20051;-58
2024/01/14 02:03:54;;;;;;;50.00;14.00;;;;;;;-3.54;100.00;98842.06;5016853;28;20061;-59
2024/01/14 02:06:21;;;;;;;50.28;13.00;;;;;;;-3.54;100.00;98836.78;5016731;28;20038;-58
2024/01/14 02:08:47;;;;;;;42.85;11.30;;;;;;;-3.49;100.00;98849.66;5016216;28;20489;-59
2024/01/14 02:11:13;;;;;;;49.03;13.55;;;;;;;-3.59;100.00;98838.94;5025684;28;20021;-59
2024/01/14 02:13:38;;;;;;;50.83;12.00;;;;;;;-3.46;100.00;98838.00;5026328;28;20030;-59
2024/01/14 02:16:04;;;;;;;47.95;12.93;;;;;;;-3.63;100.00;98816.31;5017132;28;20029;-58
2024/01/14 02:18:29;;;;;;;57.58;13.35;;;;;;;-3.54;100.00;98833.28;5013729;28;20037;-59
2024/01/14 02:20:57;;;;;;;46.70;11.93;;;;;;;-3.57;100.00;98842.28;5017893;28;20022;-59
2024/01/14 02:23:25;;;;;;;57.47;14.07;;;;;;;-3.63;100.00;98836.63;5021503;28;20032;-58
2024/01/14 02:25:51;;;;;;;50.00;13.88;;;;;;;-3.68;100.00;98818.44;5012755;28;20393;-58
2024/01/14 02:28:20;;;;;;;60.55;14.40;;;;;;;-3.58;100.00;98822.09;5018052;28;20026;-58
2024/01/14 02:30:46;;;;;;;55.72;13.48;;;;;;;-3.55;100.00;98815.72;5001994;28;20052;-58
2024/01/14 02:33:13;;;;;;;60.53;14.55;;;;;;;-3.66;100.00;98799.84;5020458;28;20029;-59
2024/01/14 02:35:39;;;;;;;50.65;13.82;;;;;;;-3.55;100.00;98818.38;5015242;28;20121;-59
2024/01/14 02:38:05;;;;;;;54.40;13.93;;;;;;;-3.51;100.00;98806.63;5018680;28;20064;-58
2024/01/14 02:40:32;;;;;;;60.63;15.27;;;;;;;-3.55;100.00;98791.94;5075451;22;20046;-76
2024/01/14 02:42:57;;;;;;;46.60;13.88;;;;;;;-3.74;100.00;98781.88;5034069;28;20036;-76
2024/01/14 02:45:22;;;;;;;50.50;13.35;;;;;;;-3.70;100.00;98788.63;5036277;28;20097;-76
2024/01/14 02:47:48;;;;;;;42.50;13.13;;;;;;;-3.63;100.00;98789.88;5030725;28;20025;-76
2024/01/14 02:50:13;;;;;;;52.30;12.48;;;;;;;-3.73;100.00;98798.59;5045288;28;20021;-76
2024/01/14 02:52:38;;;;;;;56.92;14.95;;;;;;;-3.69;100.00;98800.03;5036654;28;20121;-76
2024/01/14 02:55:04;;;;;;;47.45;13.38;;;;;;;-3.84;100.00;98765.88;5042658;28;20045;-76
2024/01/14 02:57:29;;;;;;;52.78;13.63;;;;;;;-3.69;100.00;98784.16;5039943;28;20033;-76
2024/01/14 02:59:54;;;;;;;45.35;12.65;;;;;;;-3.82;100.00;98760.47;5033788;28;20030;-76
2024/01/14 03:02:19;;;;;;;49.22;13.02;;;;;;;-3.80;100.00;98788.47;5036891;28;20025;-76
2024/01/14 03:04:45;;;;;;;59.88;13.38;;;;;;;-3.72;100.00;98792.34;5034816;28;20089;-76
2024/01/14 03:07:10;;;;;;;49.92;13.80;;;;;;;-3.76;100.00;98789.91;5038850;28;20021;-76
2024/01/14 03:09:35;;;;;;;51.60;14.38;;;;;;;-3.75;100.00;98780.19;5032733;28;20026;-76
2024/01/14 03:12:00;;;;;;;57.28;14.45;;;;;;;-3.83;100.00;98772.81;5035668;28;20097;-76
2024/01/14 03:14:26;;;;;;;58.17;14.35;;;;;;;-3.60;100.00;98788.78;5035986;28;20030;-76
2024/01/14 03:16:51;;;;;;;57.30;14.60;;;;;;;-3.48;100.00;98787.00;5040087;28;20030;-76
2024/01/14 03:19:16;;;;;;;50.42;13.10;;;;;;;-3.55;100.00;98782.19;5043593;28;20534;-76
2024/01/14 03:21:42;;;;;;;57.78;14.60;;;;;;;-3.39;100.00;98803.03;5041816;28;20026;-76
2024/01/14 03:24:07;;;;;;;70.45;15.38;;;;;;;-3.49;100.00;98790.63;5033909;28;20041;-76
2024/01/14 03:26:32;;;;;;;58.42;16.23;;;;;;;-3.58;100.00;98784.25;5044888;28;20026;-76
2024/01/14 03:28:58;;;;;;;61.17;15.25;;;;;;;-3.69;100.00;98750.66;5027963;28;20030;-76
2024/01/14 03:31:23;;;;;;;52.65;13.73;;;;;;;-3.72;100.00;98771.19;5013415;28;20061;-76
2024/01/14 03:33:48;;;;;;;53.60;13.52;;;;;;;-3.82;100.00;98774.53;5015772;28;20021;-77
2024/01/14 03:36:14;;;;;;;60.10;15.90;;;;;;;-4.01;100.00;98745.09;5016208;28;20060;-76
2024/01/14 03:38:40;;;;;;;62.97;15.48;;;;;;;-3.62;100.00;98796.00;5018479;28;20033;-76
2024/01/14 03:41:05;;;;;;;62.33;15.05;;;;;;;-3.61;100.00;98802.97;5012422;28;20064;-76
2024/01/14 03:43:31;;;;;;;46.47;13.63;;;;;;;-3.69;100.00;98781.53;5016162;28;20506;-76
2024/01/14 03:45:56;;;;;;;49.90;12.75;;;;;;;-3.73;100.00;98791.50;5012659;28;20105;-76
2024/01/14 03:48:26;;;;;;;43.13;13.50;;;;;;;-3.70;100.00;98795.72;5015674;28;20026;-76
2024/01/14 03:50:52;;;;;;;49.92;12.35;;;;;;;-3.86;100.00;98754.56;5016770;28;20022;-76
2024/01/14 03:53:17;;;;;;;48.65;13.55;;;;;;;-3.81;100.00;98760.34;5018540;28;20048;-76
2024/01/14 03:55:46;;;;;;;49.00;12.95;;;;;;;-3.84;100.00;98771.16;5011770;28;20026;-76
2024/01/14 03:58:11;;;;;;;53.22;15.30;;;;;;;-3.76;100.00;98784.63;5023243;28;20037;-76
2024/01/14 04:00:36;;;;;;;53.80;15.13;;;;;;;-3.84;100.00;98754.44;5015558;28;20038;-76
2024/01/14 04:03:02;;;;;;;47.45;12.32;;;;;;;-3.88;100.00;98748.53;5013024;28;20480;-77
2024/01/14 04:05:30;;;;;;;46.42;14.23;;;;;;;-3.84;100.00;98757.94;5016940;28;20030;-76
2024/01/14 04:07:57;;;;;;;49.65;13.75;;;;;;;-3.52;100.00;98797.00;5020262;28;20488;-76
2024/01/14 04:10:22;;;;;;;49.55;13.65;;;;;;;-3.59;100.00;98780.75;4996506;28;20507;-77
2024/01/14 04:12:48;;;;;;;53.35;13.20;;;;;;;-3.62;100.00;98765.09;5014490;28;20033;-76
2024/01/14 04:15:13;;;;;;;49.10;14.48;;;;;;;-3.47;100.00;98780.78;5012162;28;20030;-77
2024/01/14 04:17:39;;;;;;;51.55;13.68;;;;;;;-3.67;100.00;98755.81;5010097;28;20045;-76
2024/01/14 04:20:05;;;;;;;51.42;13.73;;;;;;;-3.51;100.00;98777.53;5014507;28;20060;-77
2024/01/14 04:22:30;;;;;;;54.78;14.05;;;;;;;-3.46;100.00;98774.53;5011299;28;20052;-76
2024/01/14 04:24:55;;;;;;;63.75;14.32;;;;;;;-3.38;100.00;98799.47;5021385;28;20442;-76
2024/01/14 04:27:23;;;;;;;50.03;13.35;;;;;;;-3.34;100.00;98800.06;5017163;28;20129;-76
2024/01/14 04:29:50;;;;;;;54.33;13.20;;;;;;;-3.39;100.00;98803.03;5013154;28;20026;-76
2024/01/14 04:32:15;;;;;;;52.85;13.20;;;;;;;-3.44;100.00;98794.63;5013172;28;20061;-76
2024/01/14 04:34:40;;;;;;;54.13;13.93;;;;;;;-3.35;100.00;98799.22;5020285;28;20040;-76
2024/01/14 04:37:07;;;;;;;45.25;12.20;;;;;;;-3.32;100.00;98790.22;5017927;28;20372;-76
2024/01/14 04:39:32;;;;;;;39.28;10.57;;;;;;;-3.32;100.00;98788.41;5022882;28;20038;-76
2024/01/14 04:41:58;;;;;;;42.63;12.80;;;;;;;-3.35;100.00;98780.72;5020415;28;20125;-76
2024/01/14 04:44:23;;;;;;;40.53;10.88;;;;;;;-3.44;100.00;98773.44;5019845;28;20025;-76
2024/01/14 04:46:51;;;;;;;38.92;11.00;;;;;;;-3.38;100.00;98780.94;5018585;28;20033;-76
2024/01/14 04:49:16;;;;;;;24.37;7.67;;;;;;;-3.27;100.00;98796.00;5004011;28;20448;-77
2024/01/14 04:51:42;;;;;;;38.72;10.98;;;;;;;-3.21;100.00;98805.28;5022287;28;20313;-77
2024/01/14 04:54:07;;;;;;;38.08;10.82;;;;;;;-3.26;100.00;98796.84;5017817;28;20029;-77
2024/01/14 04:56:33;;;;;;;42.75;10.43;;;;;;;-3.29;100.00;98797.06;5022848;28;20131;-77
2024/01/14 04:58:58;;;;;;;39.00;11.05;;;;;;;-3.35;100.00;98782.50;5009939;28;20029;-77
2024/01/14 05:01:23;;;;;;;40.63;10.88;;;;;;;-3.31;100.00;98783.94;5016695;28;20104;-77
2024/01/14 05:03:50;;;;;;;36.03;11.15;;;;;;;-3.47;100.00;98778.13;5013416;28;20038;-77
2024/01/14 05:06:15;;;;;;;39.60;10.40;;;;;;;-3.41;100.00;98786.44;5012071;28;20476;-77
2024/01/14 05:08:42;;;;;;;40.17;10.63;;;;;;;-3.44;100.00;98786.69;5019184;28;20105;-77
2024/01/14 05:11:07;;;;;;;39.22;10.48;;;;;;;-3.50;100.00;98758.06;5011898;28;20030;-77
2024/01/14 05:13:33;;;;;;;38.95;10.82;;;;;;;-3.36;100.00;98779.00;5011882;28;20088;-76
2024/01/14 05:15:58;;;;;;;37.13;10.73;;;;;;;-3.46;100.00;98770.06;5021075;28;20029;-78
2024/01/14 05:18:24;;;;;;;38.10;10.23;;;;;;;-3.33;100.00;98773.50;5023328;28;20439;-77
2024/01/14 05:20:52;;;;;;;38.08;10.13;;;;;;;-3.23;100.00;98780.72;5025776;28;20029;-77
2024/01/14 05:23:18;;;;;;;33.30;10.82;;;;;;;-3.15;100.00;98776.53;5018683;28;20030;-78
2024/01/14 05:25:44;;;;;;;38.05;10.13;;;;;;;-3.41;100.00;98760.00;5011746;28;20054;-78
2024/01/14 05:28:10;;;;;;;29.65;9.98;;;;;;;-3.38;100.00;98762.44;5021471;28;20130;-77
2024/01/14 05:30:37;;;;;;;37.85;11.25;;;;;;;-3.43;100.00;98761.94;4997497;28;20472;-78
2024/01/14 05:33:02;;;;;;;34.55;10.93;;;;;;;-3.40;100.00;98764.34;5018297;28;20036;-77
2024/01/14 05:35:28;;;;;;;30.83;10.02;;;;;;;-3.52;100.00;98742.28;5009994;28;20129;-78
2024/01/14 05:37:53;;;;;;;36.97;10.85;;;;;;;-3.63;100.00;98731.69;5016109;28;20037;-78
2024/01/14 05:40:20;;;;;;;38.25;10.57;;;;;;;-3.39;100.00;98758.06;5021125;28;20549;-78
2024/01/14 05:42:45;;;;;;;43.00;11.20;;;;;;;-3.39;100.00;98757.25;5010782;28;20041;-78
2024/01/14 05:45:12;;;;;;;41.97;11.27;;;;;;;-3.41;100.00;98749.41;5015461;28;20049;-78
2024/01/14 05:47:39;;;;;;;36.70;10.80;;;;;;;-3.47;100.00;98755.19;5017929;28;20048;-78
2024/01/14 05:50:06;;;;;;;47.90;12.80;;;;;;;-3.48;100.00;98745.56;5013771;28;20080;-78
2024/01/14 05:52:31;;;;;;;51.13;14.20;;;;;;;-3.62;100.00;98727.25;5013554;28;20021;-78
2024/01/14 05:54:57;;;;;;;44.20;12.77;;;;;;;-3.66;100.00;98724.00;5018676;28;20373;-78
2024/01/14 05:57:22;;;;;;;56.85;13.93;;;;;;;-3.85;100.00;98706.03;5018196;28;20521;-77
2024/01/14 05:59:47;;;;;;;47.42;13.68;;;;;;;-3.77;100.00;98719.53;5019246;28;20025;-78
2024/01/14 06:02:13;;;;;;;53.03;13.38;;;;;;;-3.63;100.00;98736.16;5019183;28;20134;-78
2024/01/14 06:04:39;;;;;;;48.33;13.50;;;;;;;-3.56;100.00;98745.31;5018378;28;20137;-78
2024/01/14 06:07:09;;;;;;;63.55;14.10;;;;;;;-3.72;100.00;98744.75;5013112;28;20457;-78
2024/01/14 06:09:36;;;;;;;61.75;15.25;;;;;;;-4.02;100.00;98711.72;5018467;28;20104;-78
2024/01/14 06:12:02;;;;;;;50.92;12.88;;;;;;;-3.94;100.00;98721.72;5021146;28;20104;-78
2024/01/14 06:14:27;;;;;;;54.15;14.70;;;;;;;-4.03;100.00;98712.69;5011569;28;20041;-78
2024/01/14 06:16:53;;;;;;;58.85;14.68;;;;;;;-3.91;100.00;98727.63;5013772;28;20025;-78
2024/01/14 06:19:18;;;;;;;58.10;14.40;;;;;;;-3.98;100.00;98726.41;5014674;28;20495;-78
2024/01/14 06:21:43;;;;;;;56.88;14.43;;;;;;;-3.88;100.00;98734.47;5015701;28;20045;-78
2024/01/14 06:24:14;;;;;;;59.95;15.43;;;;;;;-3.90;100.00;98736.38;5018011;28;20030;-78
2024/01/14 06:26:39;;;;;;;50.90;13.60;;;;;;;-4.20;100.00;98706.00;5019368;28;20476;-78
2024/01/14 06:29:05;;;;;;;55.60;15.30;;;;;;;-4.09;100.00;98726.34;5016464;28;20030;-78
2024/01/14 06:31:33;;;;;;;52.17;15.38;;;;;;;-4.09;100.00;98727.19;5017999;28;20037;-77
2024/01/14 06:33:59;;;;;;;55.83;14.63;;;;;;;-4.08;100.00;98720.13;5015664;28;20462;-77
2024/01/14 06:36:24;;;;;;;61.22;15.98;;;;;;;-4.00;100.00;98712.47;5023939;28;20030;-77
2024/01/14 06:38:50;;;;;;;61.00;15.38;;;;;;;-4.15;100.00;98685.38;5017172;28;20398;-76
2024/01/14 06:44:04;;;;;;;59.28;14.70;;;;;;;-4.06;100.00;98697.91;5157663;22;20050;-54
2024/01/14 06:46:31;;;;;;;62.88;15.25;;;;;;;-3.85;100.00;98724.53;5022066;28;20396;-55
2024/01/14 06:48:56;;;;;;;57.50;14.85;;;;;;;-3.87;100.00;98723.81;5032549;28;20029;-55
2024/01/14 06:51:22;;;;;;;54.83;14.63;;;;;;;-3.86;100.00;98712.25;5031890;28;20457;-55
2024/01/14 06:53:47;;;;;;;48.80;15.48;;;;;;;-3.84;100.00;98715.63;5033039;28;20124;-55
2024/01/14 06:56:16;;;;;;;56.97;14.93;;;;;;;-3.80;100.00;98703.03;5010559;28;20038;-55
2024/01/14 06:58:41;;;;;;;58.20;14.80;;;;;;;-3.89;100.00;98701.09;5008398;28;20121;-55
2024/01/14 07:01:09;;;;;;;49.72;14.13;;;;;;;-3.80;100.00;98706.53;5010417;28;20105;-63
2024/01/14 07:03:34;;;;;;;59.20;15.75;;;;;;;-3.85;100.00;98699.88;5014631;28;20116;-55
2024/01/14 07:05:59;;;;;;;45.03;14.45;;;;;;;-3.78;100.00;98701.13;5012807;28;20545;-55
2024/01/14 07:08:25;;;;;;;55.28;13.50;;;;;;;-3.76;100.00;98691.28;5012351;28;20414;-54
2024/01/14 07:10:50;;;;;;;56.45;15.30;;;;;;;-3.81;100.00;98691.63;5013876;28;20053;-55
2024/01/14 07:13:17;;;;;;;60.25;15.48;;;;;;;-3.72;100.00;98687.47;5011181;28;20551;-55
2024/01/14 07:15:42;;;;;;;56.72;14.23;;;;;;;-3.58;100.00;98683.75;5011687;28;20091;-55
2024/01/14 07:18:08;;;;;;;50.30;14.52;;;;;;;-3.65;100.00;98667.50;4998247;28;20026;-55
2024/01/14 07:20:33;;;;;;;64.03;16.00;;;;;;;-3.68;100.00;98661.63;5018734;28;20046;-54
2024/01/14 07:22:59;;;;;;;67.40;16.20;;;;;;;-3.83;100.00;98651.25;5014030;28;20109;-55
2024/01/14 07:25:25;;;;;;;51.40;14.35;;;;;;;-4.11;100.00;98638.41;5006997;28;20037;-55
2024/01/14 07:27:51;;;;;;;63.20;17.27;;;;;;;-4.02;100.00;98657.06;5001310;28;20030;-56
2024/01/14 07:30:18;;;;;;;53.72;14.65;;;;;;;-4.28;100.00;98600.06;5014063;28;20436;-61
2024/01/14 07:32:45;;;;;;;50.33;14.68;;;;;;;-3.98;100.00;98663.84;5008947;28;20018;-61
2024/01/14 07:35:11;;;;;;;58.78;15.15;;;;;;;-4.08;100.00;98651.44;4993707;28;20466;-61
2024/01/14 07:37:36;;;;;;;52.67;14.98;;;;;;;-3.99;100.00;98658.66;5015532;28;20057;-60
2024/01/14 07:40:02;;;;;;;59.20;17.02;;;;;;;-3.91;100.00;98652.78;5011396;28;20057;-60
2024/01/14 07:42:27;;;;;;;59.92;17.08;;;;;;;-3.84;100.00;98661.94;5009884;28;20026;-61
2024/01/14 07:44:53;;;;;;;63.28;15.93;;;;;;;-3.88;100.00;98653.38;4971098;28;1109502;-61
2024/01/14 07:47:20;;;;;;;62.95;15.75;;;;;;;-3.80;100.00;98655.44;5007232;28;20075;-61
2024/01/14 07:49:48;;;;;;;53.03;14.60;;;;;;;-3.86;100.00;98656.75;4989438;28;20361;-61
2024/01/14 07:52:17;;;;;;;51.65;15.45;;;;;;;-3.89;100.00;98651.72;5001969;28;20065;-61
2024/01/14 07:54:43;;;;;;;56.40;15.25;;;;;;;-3.93;100.00;98639.72;5009554;28;20140;-61
2024/01/14 07:57:09;;;;;;;58.28;14.63;;;;;;;-3.69;100.00;98647.56;4988547;28;20124;-60
2024/01/14 07:59:35;;;;;;;50.00;14.88;;;;;;;-3.71;100.00;98638.06;5007379;28;20026;-61
2024/01/14 08:02:08;;;;;;;51.83;14.82;;;;;;;-3.76;100.00;98646.34;5012845;28;20478;-61
2024/01/14 08:04:34;;;;;;;47.97;15.32;;;;;;;-3.73;100.00;98646.09;5009114;28;20080;-61
2024/01/14 08:06:59;;;;;;;50.85;14.70;;;;;;;-3.73;100.00;98655.84;4996374;28;20030;-61
2024/01/14 08:09:24;;;;;;;54.42;14.43;;;;;;;-3.60;100.00;98651.28;5007400;28;20029;-61
2024/01/14 08:11:50;;;;;;;54.08;14.05;;;;;;;-3.64;100.00;98649.84;5012946;28;20060;-61
2024/01/14 08:14:15;;;;;;;50.28;13.50;;;;;;;-3.54;100.00;98656.97;5008139;28;20378;-62
2024/01/14 08:16:40;;;;;;;50.35;13.45;;;;;;;-3.67;100.00;98650.91;5001172;28;20035;-67
2024/01/14 08:19:06;;;;;;;49.97;13.48;;;;;;;-3.55;100.00;98643.84;5005151;28;20437;-67
2024/01/14 08:21:31;;;;;;;43.90;12.23;;;;;;;-3.55;100.00;98639.41;5018468;28;20374;-68
2024/01/14 08:23:57;;;;;;;42.65;11.38;;;;;;;-3.41;100.00;98635.69;5012670;28;20100;-67
2024/01/14 08:26:23;;;;;;;47.13;12.95;;;;;;;-3.68;100.00;98638.66;5019441;28;20489;-67
2024/01/14 08:28:48;;;;;;;42.67;12.95;;;;;;;-3.59;100.00;98640.63;5023392;28;20065;-70
2024/01/14 08:31:14;;;;;;;47.45;13.55;;;;;;;-3.62;100.00;98637.34;5017444;28;20473;-71
2024/01/14 08:33:42;;;;;;;45.72;14.13;;;;;;;-3.63;100.00;98640.97;5017994;28;20104;-67
2024/01/14 08:36:09;;;;;;;34.67;10.13;;;;;;;-3.80;100.00;98637.81;5016017;28;20037;-68
2024/01/14 08:38:35;;;;;;;47.55;13.23;;;;;;;-3.88;100.00;98653.38;5017701;28;20466;-72
2024/01/14 08:41:07;;;;;;;45.90;13.15;;;;;;;-4.02;100.00;98645.66;5015779;28;20032;-68
2024/01/14 08:43:33;;;;;;;44.28;13.80;;;;;;;-4.05;100.00;98652.03;5028157;28;20034;-67
2024/01/14 08:45:58;;;;;;;41.88;13.30;;;;;;;-3.87;100.00;98647.16;5016535;28;20038;-67
2024/01/14 08:48:25;;;;;;;50.10;14.05;;;;;;;-3.68;100.00;98638.66;5011291;28;20034;-67
2024/01/14 08:50:50;;;;;;;46.22;12.95;;;;;;;-3.77;100.00;98632.28;5017994;28;20038;-67
2024/01/14 08:53:15;;;;;;;49.70;13.85;;;;;;;-3.48;100.00;98633.63;5014885;28;20038;-67
2024/01/14 08:55:41;;;;;;;42.33;12.25;;;;;;;-3.49;100.00;98621.38;5012472;28;20417;-68
2024/01/14 08:58:07;;;;;;;45.50;12.43;;;;;;;-3.50;100.00;98615.25;5014810;28;20029;-68
2024/01/14 09:00:32;;;;;;;47.20;13.48;;;;;;;-3.32;100.00;98611.16;5001665;28;20033;-67
2024/01/14 09:02:57;;;;;;;52.72;12.40;;;;;;;-3.03;100.00;98605.38;5015346;28;20036;-67
2024/01/14 09:05:23;;;;;;;45.58;12.32;;;;;;;-3.13;100.00;98596.50;5016148;28;20108;-67
2024/01/14 09:07:49;;;;;;;48.22;13.77;;;;;;;-3.06;100.00;98600.34;5016203;28;20026;-68
2024/01/14 09:10:14;;;;;;;42.95;12.38;;;;;;;-3.36;100.00;98590.38;5013930;28;20038;-68
2024/01/14 09:12:40;;;;;;;46.40;12.68;;;;;;;-3.07;100.00;98606.56;5007897;28;20041;-66
2024/01/14 09:15:06;;;;;;;42.75;12.02;;;;;;;-3.32;100.00;98605.88;5011330;28;20030;-66
2024/01/14 09:17:31;;;;;;;46.58;12.70;;;;;;;-3.09;100.00;98590.84;5004773;28;20462;-66
2024/01/14 09:19:57;;;;;;;39.80;13.45;;;;;;;-2.54;100.00;98593.47;5023050;28;20108;-67
2024/01/14 09:22:22;;;;;;;41.53;13.02;;;;;;;-2.32;100.00;98594.34;5015239;28;20063;-67
2024/01/14 09:24:48;;;;;;;42.95;13.23;;;;;;;-1.98;100.00;98585.25;5009622;28;20038;-68
2024/01/14 09:27:13;;;;;;;46.17;14.57;;;;;;;-1.66;100.00;98589.63;5016168;28;20031;-68
2024/01/14 09:29:40;;;;;;;52.80;15.30;;;;;;;-1.80;100.00;98582.84;5009259;28;20111;-68
2024/01/14 09:32:05;;;;;;;37.42;12.75;;;;;;;-1.36;100.00;98580.00;5009817;28;20026;-67
2024/01/14 09:34:31;;;;;;;39.00;12.57;;;;;;;-1.67;100.00;98569.38;5012465;28;20098;-68
2024/01/14 09:36:56;;;;;;;47.38;13.90;;;;;;;-1.40;100.00;98557.34;5008230;28;20057;-68
2024/01/14 09:39:21;;;;;;;46.17;13.93;;;;;;;-1.53;100.00;98573.50;5024790;28;20037;-68
2024/01/14 09:42:02;;;;;;;45.38;14.55;;;;;;;-1.47;100.00;98566.81;4997076;28;20052;-68
2024/01/14 09:44:27;;;;;;;43.45;13.43;;;;;;;-1.22;100.00;98565.53;5013542;28;20033;-68
2024/01/14 09:46:54;;;;;;;43.88;14.35;;;;;;;-1.20;100.00;98568.91;5008468;28;20040;-68
2024/01/14 09:49:23;;;;;;;47.67;13.38;;;;;;;-1.05;100.00;98561.38;5012511;28;20025;-68
2024/01/14 09:51:49;;;;;;;44.55;13.70;;;;;;;-0.95;100.00;98572.88;5015520;28;20132;-68
2024/01/14 09:54:15;;;;;;;48.58;14.05;;;;;;;-0.28;100.00;98550.84;5011786;28;20025;-68
2024/01/14 09:56:41;;;;;;;41.38;12.50;;;;;;;-0.17;100.00;98557.00;5009603;28;20037;-68
2024/01/14 09:59:07;;;;;;;49.55;14.52;;;;;;;-0.34;100.00;98551.41;4992749;28;20037;-68
2024/01/14 10:01:33;;;;;;;48.10;14.50;;;;;;;-0.72;100.00;98545.09;5008312;28;20374;-68
2024/01/14 10:04:03;;;;;;;48.55;13.98;;;;;;;-1.49;100.00;98550.19;5008915;28;20037;-68
2024/01/14 10:06:29;;;;;;;40.47;13.77;;;;;;;-1.63;100.00;98546.09;5011220;28;20036;-68
2024/01/14 10:08:56;;;;;;;42.83;14.00;;;;;;;-1.66;100.00;98530.44;5007046;28;20034;-68
2024/01/14 10:11:21;;;;;;;44.38;13.30;;;;;;;-1.27;100.00;98536.72;5009395;28;20037;-68
2024/01/14 10:13:48;;;;;;;43.83;14.10;;;;;;;-1.11;100.00;98542.34;5014299;28;20370;-67
2024/01/14 10:16:13;;;;;;;43.58;14.50;;;;;;;-0.63;100.00;98540.75;4995818;28;20494;-68
2024/01/14 10:18:39;;;;;;;41.88;13.18;;;;;;;0.46;100.00;98520.00;5014681;28;20057;-67
2024/01/14 10:21:05;;;;;;;50.88;14.30;;;;;;;1.01;100.00;98498.69;4993524;28;20018;-68
2024/01/14 10:23:31;;;;;;;37.25;12.70;;;;;;;1.37;100.00;98505.91;5014879;28;20053;-68
2024/01/14 10:26:01;;;;;;;42.78;14.55;;;;;;;0.94;100.00;98497.63;5015433;28;20022;-70
2024/01/14 10:28:37;;;;;;;42.67;15.20;;;;;;;-0.11;100.00;98493.44;5004587;28;20118;-68
2024/01/14 10:31:06;;;;;;;43.65;13.85;;;;;;;0.03;100.00;98497.47;5014206;28;20022;-68
2024/01/14 10:33:44;;;;;;;48.53;15.63;;;;;;;0.74;100.00;98482.75;4993940;28;20060;-68
2024/01/14 10:36:10;;;;;;;37.70;13.60;;;;;;;1.14;100.00;98479.69;5016639;28;20342;-68
2024/01/14 10:38:36;;;;;;;45.95;14.55;;;;;;;1.18;100.00;98474.88;5012177;28;20076;-70
2024/01/14 10:41:06;;;;;;;37.95;13.85;;;;;;;1.38;100.00;98473.75;5014450;28;20058;-69
2024/01/14 10:43:33;;;;;;;;;;;;;;;1.51;100.00;98466.19;5016302;28;20108;-69
2024/01/14 10:45:59;;;;;;;43.58;13.82;;;;;;;1.99;100.00;98461.34;5014758;28;19913;-68
2024/01/14 10:48:26;;;;;;;45.83;15.48;;;;;;;2.20;100.00;98444.97;5015133;28;20033;-68
2024/01/14 10:50:56;;;;;;;54.83;16.63;;;;;;;2.45;100.00;98453.13;5013095;28;20025;-68
2024/01/14 10:53:23;;;;;;;46.63;15.50;;;;;;;1.93;100.00;98449.50;4998354;28;20025;-68
2024/01/14 10:55:56;;;;;;;47.95;16.17;;;;;;;1.93;100.00;98454.81;5007621;28;20025;-68
2024/01/14 10:58:29;;;;;;;46.83;16.13;;;;;;;1.15;100.00;98453.88;5007176;28;20034;-69
2024/01/14 11:00:59;;;;;;;45.70;14.77;;;;;;;1.72;100.00;98444.50;4991204;28;20121;-68
2024/01/14 11:03:25;;;;;;;46.72;16.52;;;;;;;1.89;100.00;98436.66;5019715;28;20071;-68
2024/01/14 11:05:52;;;;;;;46.83;16.50;;;;;;;2.51;100.00;98439.94;5015706;28;20105;-69
2024/01/14 11:08:19;;;;;;;42.42;14.77;;;;;;;4.24;100.00;98430.97;5012140;28;20041;-69